sensor_id;sensor_type;location;lat;lon;timestamp;P1;durP1;ratioP1;P2;durP2;ratioP2
76138;SDS011;65138;50.946;7.074;2022-12-24T00:02:19;3.78;;;0.52;;
76138;SDS011;65138;50.946;7.074;2022-12-24T00:04:44;4.47;;;0.70;;
76138;SDS011;65138;50.946;7.074;2022-12-24T00:07:10;2.63;;;0.40;;
76138;SDS011;65138;50.946;7.074;2022-12-24T00:09:36;2.90;;;0.32;;
76138;SDS011;65138;50.946;7.074;2022-12-24T00:12:02;3.65;;;0.52;;
76138;SDS011;65138;50.946;7.074;2022-12-24T00:14:28;2.05;;;0.22;;
76138;SDS011;65138;50.946;7.074;2022-12-24T00:16:54;2.63;;;0.38;;
76138;SDS011;65138;50.946;7.074;2022-12-24T00:19:20;2.78;;;0.70;;
76138;SDS011;65138;50.946;7.074;2022-12-24T00:21:45;3.13;;;0.40;;
76138;SDS011;65138;50.946;7.074;2022-12-24T00:24:11;2.10;;;0.32;;
76138;SDS011;65138;50.946;7.074;2022-12-24T00:26:36;3.80;;;0.70;;
76138;SDS011;65138;50.946;7.074;2022-12-24T00:29:02;2.72;;;0.40;;
76138;SDS011;65138;50.946;7.074;2022-12-24T00:31:28;4.25;;;0.47;;
76138;SDS011;65138;50.946;7.074;2022-12-24T00:33:54;3.10;;;0.40;;
76138;SDS011;65138;50.946;7.074;2022-12-24T00:36:20;4.78;;;0.50;;
76138;SDS011;65138;50.946;7.074;2022-12-24T00:38:47;4.10;;;0.60;;
76138;SDS011;65138;50.946;7.074;2022-12-24T00:41:12;2.58;;;0.55;;
76138;SDS011;65138;50.946;7.074;2022-12-24T00:46:27;4.00;;;0.57;;
76138;SDS011;65138;50.946;7.074;2022-12-24T00:48:55;2.78;;;0.55;;
76138;SDS011;65138;50.946;7.074;2022-12-24T00:51:20;3.10;;;0.60;;
76138;SDS011;65138;50.946;7.074;2022-12-24T00:53:47;2.63;;;0.40;;
76138;SDS011;65138;50.946;7.074;2022-12-24T00:56:13;4.13;;;0.38;;
76138;SDS011;65138;50.946;7.074;2022-12-24T00:58:39;5.22;;;0.55;;
76138;SDS011;65138;50.946;7.074;2022-12-24T01:01:05;3.08;;;0.60;;
76138;SDS011;65138;50.946;7.074;2022-12-24T01:03:31;3.95;;;0.45;;
76138;SDS011;65138;50.946;7.074;2022-12-24T01:06:10;2.85;;;0.40;;
76138;SDS011;65138;50.946;7.074;2022-12-24T01:08:38;2.45;;;0.40;;
76138;SDS011;65138;50.946;7.074;2022-12-24T01:11:05;3.42;;;0.40;;
76138;SDS011;65138;50.946;7.074;2022-12-24T01:13:32;4.32;;;0.40;;
76138;SDS011;65138;50.946;7.074;2022-12-24T01:15:58;4.38;;;0.50;;
76138;SDS011;65138;50.946;7.074;2022-12-24T01:18:24;2.08;;;0.52;;
76138;SDS011;65138;50.946;7.074;2022-12-24T01:20:57;4.03;;;0.70;;
76138;SDS011;65138;50.946;7.074;2022-12-24T01:23:24;4.10;;;0.45;;
76138;SDS011;65138;50.946;7.074;2022-12-24T01:25:50;2.05;;;0.38;;
76138;SDS011;65138;50.946;7.074;2022-12-24T01:28:17;4.10;;;0.60;;
76138;SDS011;65138;50.946;7.074;2022-12-24T01:30:43;4.97;;;0.47;;
76138;SDS011;65138;50.946;7.074;2022-12-24T01:33:09;3.35;;;0.40;;
76138;SDS011;65138;50.946;7.074;2022-12-24T01:35:37;3.75;;;0.60;;
76138;SDS011;65138;50.946;7.074;2022-12-24T01:38:07;2.55;;;0.55;;
76138;SDS011;65138;50.946;7.074;2022-12-24T01:40:35;3.63;;;0.47;;
76138;SDS011;65138;50.946;7.074;2022-12-24T01:43:21;2.88;;;0.30;;
76138;SDS011;65138;50.946;7.074;2022-12-24T01:45:51;3.22;;;0.60;;
76138;SDS011;65138;50.946;7.074;2022-12-24T01:48:39;3.78;;;0.40;;
76138;SDS011;65138;50.946;7.074;2022-12-24T01:51:16;4.25;;;0.50;;
76138;SDS011;65138;50.946;7.074;2022-12-24T01:53:52;3.35;;;0.40;;
76138;SDS011;65138;50.946;7.074;2022-12-24T01:56:21;3.25;;;0.45;;
76138;SDS011;65138;50.946;7.074;2022-12-24T01:58:50;2.95;;;0.52;;
76138;SDS011;65138;50.946;7.074;2022-12-24T02:01:19;3.25;;;0.30;;
76138;SDS011;65138;50.946;7.074;2022-12-24T02:03:45;3.65;;;0.40;;
76138;SDS011;65138;50.946;7.074;2022-12-24T02:06:11;3.35;;;0.63;;
76138;SDS011;65138;50.946;7.074;2022-12-24T02:08:42;3.05;;;0.50;;
76138;SDS011;65138;50.946;7.074;2022-12-24T02:11:09;3.30;;;0.50;;
76138;SDS011;65138;50.946;7.074;2022-12-24T02:13:35;4.03;;;0.60;;
76138;SDS011;65138;50.946;7.074;2022-12-24T02:16:13;2.47;;;0.80;;
76138;SDS011;65138;50.946;7.074;2022-12-24T02:19:30;2.45;;;0.35;;
76138;SDS011;65138;50.946;7.074;2022-12-24T02:24:58;2.65;;;0.65;;
76138;SDS011;65138;50.946;7.074;2022-12-24T02:27:48;4.72;;;0.50;;
76138;SDS011;65138;50.946;7.074;2022-12-24T02:30:21;2.75;;;0.43;;
76138;SDS011;65138;50.946;7.074;2022-12-24T02:36:04;3.10;;;0.68;;
76138;SDS011;65138;50.946;7.074;2022-12-24T02:38:45;2.10;;;0.30;;
76138;SDS011;65138;50.946;7.074;2022-12-24T02:41:15;2.60;;;0.40;;
76138;SDS011;65138;50.946;7.074;2022-12-24T02:43:46;3.13;;;0.45;;
76138;SDS011;65138;50.946;7.074;2022-12-24T02:46:15;3.53;;;0.60;;
76138;SDS011;65138;50.946;7.074;2022-12-24T02:48:47;2.88;;;0.47;;
76138;SDS011;65138;50.946;7.074;2022-12-24T02:51:13;4.10;;;0.50;;
76138;SDS011;65138;50.946;7.074;2022-12-24T02:53:40;2.90;;;1.02;;
76138;SDS011;65138;50.946;7.074;2022-12-24T02:56:25;3.78;;;0.50;;
76138;SDS011;65138;50.946;7.074;2022-12-24T03:05:01;3.35;;;0.93;;
76138;SDS011;65138;50.946;7.074;2022-12-24T03:08:03;2.75;;;0.50;;
76138;SDS011;65138;50.946;7.074;2022-12-24T03:10:40;3.35;;;0.50;;
76138;SDS011;65138;50.946;7.074;2022-12-24T03:13:17;3.88;;;0.40;;
76138;SDS011;65138;50.946;7.074;2022-12-24T03:15:45;2.72;;;0.22;;
76138;SDS011;65138;50.946;7.074;2022-12-24T03:18:11;4.68;;;0.50;;
76138;SDS011;65138;50.946;7.074;2022-12-24T03:20:42;1.88;;;0.35;;
76138;SDS011;65138;50.946;7.074;2022-12-24T03:23:10;2.67;;;0.45;;
76138;SDS011;65138;50.946;7.074;2022-12-24T03:25:38;4.22;;;0.68;;
76138;SDS011;65138;50.946;7.074;2022-12-24T03:28:06;4.63;;;0.65;;
76138;SDS011;65138;50.946;7.074;2022-12-24T03:30:34;2.83;;;0.47;;
76138;SDS011;65138;50.946;7.074;2022-12-24T03:33:02;2.20;;;0.70;;
76138;SDS011;65138;50.946;7.074;2022-12-24T03:35:28;2.85;;;0.73;;
76138;SDS011;65138;50.946;7.074;2022-12-24T03:37:54;2.15;;;0.30;;
76138;SDS011;65138;50.946;7.074;2022-12-24T03:40:20;3.33;;;0.45;;
76138;SDS011;65138;50.946;7.074;2022-12-24T03:42:46;3.03;;;0.40;;
76138;SDS011;65138;50.946;7.074;2022-12-24T03:45:11;3.28;;;0.40;;
76138;SDS011;65138;50.946;7.074;2022-12-24T03:47:37;3.05;;;0.52;;
76138;SDS011;65138;50.946;7.074;2022-12-24T03:50:03;2.42;;;0.52;;
76138;SDS011;65138;50.946;7.074;2022-12-24T03:52:29;2.42;;;0.43;;
76138;SDS011;65138;50.946;7.074;2022-12-24T03:54:54;2.25;;;0.30;;
76138;SDS011;65138;50.946;7.074;2022-12-24T03:57:20;2.42;;;0.30;;
76138;SDS011;65138;50.946;7.074;2022-12-24T03:59:46;3.58;;;0.60;;
76138;SDS011;65138;50.946;7.074;2022-12-24T04:02:11;3.05;;;0.73;;
76138;SDS011;65138;50.946;7.074;2022-12-24T04:04:37;2.47;;;0.50;;
76138;SDS011;65138;50.946;7.074;2022-12-24T04:07:03;3.65;;;0.40;;
76138;SDS011;65138;50.946;7.074;2022-12-24T04:09:29;2.53;;;0.50;;
76138;SDS011;65138;50.946;7.074;2022-12-24T04:11:55;3.85;;;0.50;;
76138;SDS011;65138;50.946;7.074;2022-12-24T04:14:21;1.90;;;0.40;;
76138;SDS011;65138;50.946;7.074;2022-12-24T04:16:46;2.97;;;0.28;;
76138;SDS011;65138;50.946;7.074;2022-12-24T04:19:12;3.17;;;0.60;;
76138;SDS011;65138;50.946;7.074;2022-12-24T04:21:37;3.58;;;0.35;;
76138;SDS011;65138;50.946;7.074;2022-12-24T04:24:03;1.95;;;0.50;;
76138;SDS011;65138;50.946;7.074;2022-12-24T04:26:29;2.03;;;0.30;;
76138;SDS011;65138;50.946;7.074;2022-12-24T04:28:55;2.80;;;0.40;;
76138;SDS011;65138;50.946;7.074;2022-12-24T04:31:20;2.42;;;0.55;;
76138;SDS011;65138;50.946;7.074;2022-12-24T04:33:46;2.17;;;0.35;;
76138;SDS011;65138;50.946;7.074;2022-12-24T04:36:13;2.78;;;0.40;;
76138;SDS011;65138;50.946;7.074;2022-12-24T04:38:41;1.52;;;0.20;;
76138;SDS011;65138;50.946;7.074;2022-12-24T04:41:09;1.67;;;0.30;;
76138;SDS011;65138;50.946;7.074;2022-12-24T04:43:37;2.08;;;0.30;;
76138;SDS011;65138;50.946;7.074;2022-12-24T04:46:07;2.55;;;0.40;;
76138;SDS011;65138;50.946;7.074;2022-12-24T04:48:42;2.92;;;0.30;;
76138;SDS011;65138;50.946;7.074;2022-12-24T04:51:08;1.98;;;0.40;;
76138;SDS011;65138;50.946;7.074;2022-12-24T04:53:35;2.40;;;0.22;;
76138;SDS011;65138;50.946;7.074;2022-12-24T04:56:01;0.82;;;0.15;;
76138;SDS011;65138;50.946;7.074;2022-12-24T04:58:27;1.83;;;0.38;;
76138;SDS011;65138;50.946;7.074;2022-12-24T05:00:53;2.03;;;0.30;;
76138;SDS011;65138;50.946;7.074;2022-12-24T05:03:19;1.20;;;0.30;;
76138;SDS011;65138;50.946;7.074;2022-12-24T05:05:45;1.45;;;0.32;;
76138;SDS011;65138;50.946;7.074;2022-12-24T05:08:12;1.33;;;0.17;;
76138;SDS011;65138;50.946;7.074;2022-12-24T05:10:38;2.17;;;0.35;;
76138;SDS011;65138;50.946;7.074;2022-12-24T05:13:03;2.05;;;0.20;;
76138;SDS011;65138;50.946;7.074;2022-12-24T05:15:29;1.33;;;0.20;;
76138;SDS011;65138;50.946;7.074;2022-12-24T05:17:55;2.75;;;0.30;;
76138;SDS011;65138;50.946;7.074;2022-12-24T05:20:22;1.77;;;0.20;;
76138;SDS011;65138;50.946;7.074;2022-12-24T05:22:48;1.50;;;0.30;;
76138;SDS011;65138;50.946;7.074;2022-12-24T05:25:33;1.50;;;0.20;;
76138;SDS011;65138;50.946;7.074;2022-12-24T05:28:21;0.70;;;0.10;;
76138;SDS011;65138;50.946;7.074;2022-12-24T05:30:47;2.10;;;0.13;;
76138;SDS011;65138;50.946;7.074;2022-12-24T05:33:13;2.10;;;0.20;;
76138;SDS011;65138;50.946;7.074;2022-12-24T05:35:38;2.78;;;0.30;;
76138;SDS011;65138;50.946;7.074;2022-12-24T05:38:04;2.13;;;0.20;;
76138;SDS011;65138;50.946;7.074;2022-12-24T05:40:30;2.72;;;0.10;;
76138;SDS011;65138;50.946;7.074;2022-12-24T05:42:55;1.98;;;0.20;;
76138;SDS011;65138;50.946;7.074;2022-12-24T05:45:21;3.22;;;0.65;;
76138;SDS011;65138;50.946;7.074;2022-12-24T05:47:47;4.07;;;0.20;;
76138;SDS011;65138;50.946;7.074;2022-12-24T05:50:12;4.10;;;0.52;;
76138;SDS011;65138;50.946;7.074;2022-12-24T05:52:38;2.50;;;0.40;;
76138;SDS011;65138;50.946;7.074;2022-12-24T05:55:06;4.05;;;0.28;;
76138;SDS011;65138;50.946;7.074;2022-12-24T05:57:33;2.20;;;0.30;;
76138;SDS011;65138;50.946;7.074;2022-12-24T05:59:58;2.65;;;0.50;;
76138;SDS011;65138;50.946;7.074;2022-12-24T06:02:24;3.42;;;0.30;;
76138;SDS011;65138;50.946;7.074;2022-12-24T06:04:49;4.90;;;0.40;;
76138;SDS011;65138;50.946;7.074;2022-12-24T06:07:15;2.30;;;0.10;;
76138;SDS011;65138;50.946;7.074;2022-12-24T06:09:41;3.83;;;0.30;;
76138;SDS011;65138;50.946;7.074;2022-12-24T06:12:06;4.07;;;0.47;;
76138;SDS011;65138;50.946;7.074;2022-12-24T06:14:32;5.45;;;0.70;;
76138;SDS011;65138;50.946;7.074;2022-12-24T06:16:58;3.42;;;0.40;;
76138;SDS011;65138;50.946;7.074;2022-12-24T06:19:23;4.47;;;0.28;;
76138;SDS011;65138;50.946;7.074;2022-12-24T06:21:49;4.40;;;0.63;;
76138;SDS011;65138;50.946;7.074;2022-12-24T06:24:15;2.42;;;0.20;;
76138;SDS011;65138;50.946;7.074;2022-12-24T06:26:40;2.70;;;0.15;;
76138;SDS011;65138;50.946;7.074;2022-12-24T06:29:06;1.05;;;0.20;;
76138;SDS011;65138;50.946;7.074;2022-12-24T06:31:32;1.63;;;0.30;;
76138;SDS011;65138;50.946;7.074;2022-12-24T06:33:57;2.55;;;0.38;;
76138;SDS011;65138;50.946;7.074;2022-12-24T06:36:24;3.10;;;0.10;;
76138;SDS011;65138;50.946;7.074;2022-12-24T06:38:50;3.45;;;0.30;;
76138;SDS011;65138;50.946;7.074;2022-12-24T06:41:17;2.97;;;0.30;;
76138;SDS011;65138;50.946;7.074;2022-12-24T06:43:44;1.73;;;0.20;;
76138;SDS011;65138;50.946;7.074;2022-12-24T06:46:11;2.75;;;0.40;;
76138;SDS011;65138;50.946;7.074;2022-12-24T06:48:41;1.88;;;0.20;;
76138;SDS011;65138;50.946;7.074;2022-12-24T06:51:10;1.88;;;0.22;;
76138;SDS011;65138;50.946;7.074;2022-12-24T06:53:36;2.22;;;0.20;;
76138;SDS011;65138;50.946;7.074;2022-12-24T06:56:09;1.50;;;0.20;;
76138;SDS011;65138;50.946;7.074;2022-12-24T06:58:36;1.27;;;0.20;;
76138;SDS011;65138;50.946;7.074;2022-12-24T07:01:03;3.30;;;0.40;;
76138;SDS011;65138;50.946;7.074;2022-12-24T07:03:30;1.65;;;0.10;;
76138;SDS011;65138;50.946;7.074;2022-12-24T07:05:59;2.45;;;0.63;;
76138;SDS011;65138;50.946;7.074;2022-12-24T07:08:25;3.08;;;0.45;;
76138;SDS011;65138;50.946;7.074;2022-12-24T07:10:51;1.55;;;0.20;;
76138;SDS011;65138;50.946;7.074;2022-12-24T07:13:20;1.35;;;0.20;;
76138;SDS011;65138;50.946;7.074;2022-12-24T07:15:46;1.65;;;0.40;;
76138;SDS011;65138;50.946;7.074;2022-12-24T07:18:20;2.35;;;0.30;;
76138;SDS011;65138;50.946;7.074;2022-12-24T07:20:46;3.20;;;0.30;;
76138;SDS011;65138;50.946;7.074;2022-12-24T07:23:11;2.08;;;0.22;;
76138;SDS011;65138;50.946;7.074;2022-12-24T07:25:40;1.27;;;0.20;;
76138;SDS011;65138;50.946;7.074;2022-12-24T07:28:06;2.53;;;0.35;;
76138;SDS011;65138;50.946;7.074;2022-12-24T07:30:32;1.58;;;0.28;;
76138;SDS011;65138;50.946;7.074;2022-12-24T07:32:57;2.80;;;0.43;;
76138;SDS011;65138;50.946;7.074;2022-12-24T07:35:23;3.70;;;0.20;;
76138;SDS011;65138;50.946;7.074;2022-12-24T07:37:49;3.92;;;0.20;;
76138;SDS011;65138;50.946;7.074;2022-12-24T07:40:15;1.75;;;0.40;;
76138;SDS011;65138;50.946;7.074;2022-12-24T07:42:40;3.80;;;0.45;;
76138;SDS011;65138;50.946;7.074;2022-12-24T07:45:06;1.95;;;0.32;;
76138;SDS011;65138;50.946;7.074;2022-12-24T07:47:33;3.65;;;0.77;;
76138;SDS011;65138;50.946;7.074;2022-12-24T07:50:00;2.10;;;0.40;;
76138;SDS011;65138;50.946;7.074;2022-12-24T07:52:29;2.35;;;0.25;;
76138;SDS011;65138;50.946;7.074;2022-12-24T07:54:55;2.50;;;0.40;;
76138;SDS011;65138;50.946;7.074;2022-12-24T07:57:20;2.85;;;0.40;;
76138;SDS011;65138;50.946;7.074;2022-12-24T07:59:46;1.55;;;0.20;;
76138;SDS011;65138;50.946;7.074;2022-12-24T08:02:11;1.13;;;0.20;;
76138;SDS011;65138;50.946;7.074;2022-12-24T08:04:37;3.67;;;0.65;;
76138;SDS011;65138;50.946;7.074;2022-12-24T08:07:04;2.33;;;0.40;;
76138;SDS011;65138;50.946;7.074;2022-12-24T08:09:31;2.00;;;0.40;;
76138;SDS011;65138;50.946;7.074;2022-12-24T08:12:03;1.40;;;0.20;;
76138;SDS011;65138;50.946;7.074;2022-12-24T08:14:30;2.60;;;0.35;;
76138;SDS011;65138;50.946;7.074;2022-12-24T08:16:56;1.95;;;0.50;;
76138;SDS011;65138;50.946;7.074;2022-12-24T08:19:22;2.28;;;0.28;;
76138;SDS011;65138;50.946;7.074;2022-12-24T08:21:48;2.90;;;0.32;;
76138;SDS011;65138;50.946;7.074;2022-12-24T08:24:15;3.38;;;0.63;;
76138;SDS011;65138;50.946;7.074;2022-12-24T08:26:40;2.92;;;0.60;;
76138;SDS011;65138;50.946;7.074;2022-12-24T08:29:09;1.80;;;0.50;;
76138;SDS011;65138;50.946;7.074;2022-12-24T08:31:36;4.70;;;0.68;;
76138;SDS011;65138;50.946;7.074;2022-12-24T08:34:06;3.00;;;0.60;;
76138;SDS011;65138;50.946;7.074;2022-12-24T08:36:33;2.33;;;0.20;;
76138;SDS011;65138;50.946;7.074;2022-12-24T08:38:59;4.03;;;0.60;;
76138;SDS011;65138;50.946;7.074;2022-12-24T08:41:28;4.15;;;0.65;;
76138;SDS011;65138;50.946;7.074;2022-12-24T08:43:56;2.08;;;0.60;;
76138;SDS011;65138;50.946;7.074;2022-12-24T08:46:23;2.88;;;0.55;;
76138;SDS011;65138;50.946;7.074;2022-12-24T08:48:49;1.88;;;0.32;;
76138;SDS011;65138;50.946;7.074;2022-12-24T08:51:15;1.85;;;0.45;;
76138;SDS011;65138;50.946;7.074;2022-12-24T08:53:41;4.25;;;0.60;;
76138;SDS011;65138;50.946;7.074;2022-12-24T08:56:08;2.63;;;0.40;;
76138;SDS011;65138;50.946;7.074;2022-12-24T08:58:34;3.22;;;0.38;;
76138;SDS011;65138;50.946;7.074;2022-12-24T09:01:00;4.18;;;0.70;;
76138;SDS011;65138;50.946;7.074;2022-12-24T09:03:26;2.08;;;0.40;;
76138;SDS011;65138;50.946;7.074;2022-12-24T09:05:52;3.08;;;0.55;;
76138;SDS011;65138;50.946;7.074;2022-12-24T09:08:18;3.22;;;0.45;;
76138;SDS011;65138;50.946;7.074;2022-12-24T09:10:45;5.55;;;0.60;;
76138;SDS011;65138;50.946;7.074;2022-12-24T09:13:10;3.70;;;0.77;;
76138;SDS011;65138;50.946;7.074;2022-12-24T09:15:36;4.22;;;0.82;;
76138;SDS011;65138;50.946;7.074;2022-12-24T09:18:02;3.40;;;0.73;;
76138;SDS011;65138;50.946;7.074;2022-12-24T09:20:27;3.47;;;0.47;;
76138;SDS011;65138;50.946;7.074;2022-12-24T09:22:53;3.60;;;0.50;;
76138;SDS011;65138;50.946;7.074;2022-12-24T09:25:19;4.53;;;0.60;;
76138;SDS011;65138;50.946;7.074;2022-12-24T09:27:44;3.75;;;0.70;;
76138;SDS011;65138;50.946;7.074;2022-12-24T09:30:10;3.15;;;0.75;;
76138;SDS011;65138;50.946;7.074;2022-12-24T09:32:36;1.85;;;0.45;;
76138;SDS011;65138;50.946;7.074;2022-12-24T09:35:02;3.40;;;0.45;;
76138;SDS011;65138;50.946;7.074;2022-12-24T09:37:28;2.83;;;0.55;;
76138;SDS011;65138;50.946;7.074;2022-12-24T09:39:54;4.97;;;0.50;;
76138;SDS011;65138;50.946;7.074;2022-12-24T09:42:27;3.83;;;0.60;;
76138;SDS011;65138;50.946;7.074;2022-12-24T09:45:05;3.15;;;0.65;;
76138;SDS011;65138;50.946;7.074;2022-12-24T09:47:49;3.45;;;0.40;;
76138;SDS011;65138;50.946;7.074;2022-12-24T09:52:53;5.18;;;0.82;;
76138;SDS011;65138;50.946;7.074;2022-12-24T09:55:28;3.78;;;0.47;;
76138;SDS011;65138;50.946;7.074;2022-12-24T10:00:27;4.40;;;0.65;;
76138;SDS011;65138;50.946;7.074;2022-12-24T10:02:54;2.58;;;0.30;;
76138;SDS011;65138;50.946;7.074;2022-12-24T10:05:44;3.10;;;0.50;;
76138;SDS011;65138;50.946;7.074;2022-12-24T10:11:16;3.55;;;0.47;;
76138;SDS011;65138;50.946;7.074;2022-12-24T10:16:34;4.25;;;0.55;;
76138;SDS011;65138;50.946;7.074;2022-12-24T10:22:10;4.18;;;0.50;;
76138;SDS011;65138;50.946;7.074;2022-12-24T10:27:41;4.50;;;0.80;;
76138;SDS011;65138;50.946;7.074;2022-12-24T10:30:14;4.07;;;0.65;;
76138;SDS011;65138;50.946;7.074;2022-12-24T10:32:43;4.60;;;0.65;;
76138;SDS011;65138;50.946;7.074;2022-12-24T10:37:48;5.72;;;1.63;;
76138;SDS011;65138;50.946;7.074;2022-12-24T10:42:48;3.78;;;0.65;;
76138;SDS011;65138;50.946;7.074;2022-12-24T10:45:15;3.38;;;0.52;;
76138;SDS011;65138;50.946;7.074;2022-12-24T10:47:44;4.85;;;0.90;;
76138;SDS011;65138;50.946;7.074;2022-12-24T10:50:14;4.63;;;0.98;;
76138;SDS011;65138;50.946;7.074;2022-12-24T10:52:45;2.50;;;0.40;;
76138;SDS011;65138;50.946;7.074;2022-12-24T10:57:44;3.10;;;0.82;;
76138;SDS011;65138;50.946;7.074;2022-12-24T11:02:47;5.93;;;1.20;;
76138;SDS011;65138;50.946;7.074;2022-12-24T11:05:30;4.03;;;0.80;;
76138;SDS011;65138;50.946;7.074;2022-12-24T11:08:13;6.53;;;0.93;;
76138;SDS011;65138;50.946;7.074;2022-12-24T11:11:01;4.97;;;1.00;;
76138;SDS011;65138;50.946;7.074;2022-12-24T11:13:30;4.65;;;0.82;;
76138;SDS011;65138;50.946;7.074;2022-12-24T11:16:05;3.05;;;0.73;;
76138;SDS011;65138;50.946;7.074;2022-12-24T11:18:35;4.68;;;0.93;;
76138;SDS011;65138;50.946;7.074;2022-12-24T11:21:08;4.72;;;0.70;;
76138;SDS011;65138;50.946;7.074;2022-12-24T11:23:34;3.30;;;0.60;;
76138;SDS011;65138;50.946;7.074;2022-12-24T11:25:59;3.85;;;0.80;;
76138;SDS011;65138;50.946;7.074;2022-12-24T11:28:27;4.07;;;0.82;;
76138;SDS011;65138;50.946;7.074;2022-12-24T11:30:57;4.45;;;0.77;;
76138;SDS011;65138;50.946;7.074;2022-12-24T11:33:31;4.22;;;0.85;;
76138;SDS011;65138;50.946;7.074;2022-12-24T11:36:21;5.28;;;1.10;;
76138;SDS011;65138;50.946;7.074;2022-12-24T11:38:52;3.47;;;0.73;;
76138;SDS011;65138;50.946;7.074;2022-12-24T11:41:20;4.07;;;0.80;;
76138;SDS011;65138;50.946;7.074;2022-12-24T11:43:46;3.88;;;0.70;;
76138;SDS011;65138;50.946;7.074;2022-12-24T11:48:46;5.32;;;1.00;;
76138;SDS011;65138;50.946;7.074;2022-12-24T11:51:23;4.80;;;1.00;;
76138;SDS011;65138;50.946;7.074;2022-12-24T11:59:35;5.85;;;1.15;;
76138;SDS011;65138;50.946;7.074;2022-12-24T12:02:17;4.63;;;0.77;;
76138;SDS011;65138;50.946;7.074;2022-12-24T12:04:58;4.75;;;1.08;;
76138;SDS011;65138;50.946;7.074;2022-12-24T12:07:30;4.32;;;0.88;;
76138;SDS011;65138;50.946;7.074;2022-12-24T12:10:02;6.25;;;1.25;;
76138;SDS011;65138;50.946;7.074;2022-12-24T12:12:37;3.88;;;0.88;;
76138;SDS011;65138;50.946;7.074;2022-12-24T12:15:13;4.43;;;0.85;;
76138;SDS011;65138;50.946;7.074;2022-12-24T12:25:25;2.65;;;0.70;;
76138;SDS011;65138;50.946;7.074;2022-12-24T12:28:01;4.95;;;0.82;;
76138;SDS011;65138;50.946;7.074;2022-12-24T12:32:58;3.67;;;0.60;;
76138;SDS011;65138;50.946;7.074;2022-12-24T12:35:33;4.80;;;0.70;;
76138;SDS011;65138;50.946;7.074;2022-12-24T12:38:07;2.45;;;0.68;;
76138;SDS011;65138;50.946;7.074;2022-12-24T12:46:06;3.80;;;0.80;;
76138;SDS011;65138;50.946;7.074;2022-12-24T12:56:32;3.72;;;0.82;;
76138;SDS011;65138;50.946;7.074;2022-12-24T13:02:24;3.85;;;0.80;;
76138;SDS011;65138;50.946;7.074;2022-12-24T13:04:57;5.55;;;0.80;;
76138;SDS011;65138;50.946;7.074;2022-12-24T13:10:21;5.45;;;0.98;;
76138;SDS011;65138;50.946;7.074;2022-12-24T13:21:32;3.72;;;0.90;;
76138;SDS011;65138;50.946;7.074;2022-12-24T13:24:17;3.72;;;1.25;;
76138;SDS011;65138;50.946;7.074;2022-12-24T13:32:37;2.60;;;0.65;;
76138;SDS011;65138;50.946;7.074;2022-12-24T13:35:26;3.90;;;0.88;;
76138;SDS011;65138;50.946;7.074;2022-12-24T13:37:54;4.90;;;0.98;;
76138;SDS011;65138;50.946;7.074;2022-12-24T13:40:54;3.67;;;1.00;;
76138;SDS011;65138;50.946;7.074;2022-12-24T13:49:17;2.58;;;0.60;;
76138;SDS011;65138;50.946;7.074;2022-12-24T13:52:00;4.18;;;1.00;;
76138;SDS011;65138;50.946;7.074;2022-12-24T14:05:43;2.75;;;0.73;;
76138;SDS011;65138;50.946;7.074;2022-12-24T14:16:18;3.22;;;0.88;;
76138;SDS011;65138;50.946;7.074;2022-12-24T14:19:02;4.80;;;1.05;;
76138;SDS011;65138;50.946;7.074;2022-12-24T14:21:41;3.60;;;0.70;;
76138;SDS011;65138;50.946;7.074;2022-12-24T14:27:46;6.78;;;1.25;;
76138;SDS011;65138;50.946;7.074;2022-12-24T14:29:51;4.40;;;1.02;;
76138;SDS011;65138;50.946;7.074;2022-12-24T14:32:18;4.63;;;1.08;;
76138;SDS011;65138;50.946;7.074;2022-12-24T14:34:43;2.80;;;0.90;;
76138;SDS011;65138;50.946;7.074;2022-12-24T14:37:11;4.57;;;1.20;;
76138;SDS011;65138;50.946;7.074;2022-12-24T14:39:45;3.47;;;1.08;;
76138;SDS011;65138;50.946;7.074;2022-12-24T14:45:07;3.13;;;0.82;;
76138;SDS011;65138;50.946;7.074;2022-12-24T14:50:39;2.95;;;0.80;;
76138;SDS011;65138;50.946;7.074;2022-12-24T14:53:19;2.42;;;0.52;;
76138;SDS011;65138;50.946;7.074;2022-12-24T14:55:48;4.07;;;0.75;;
76138;SDS011;65138;50.946;7.074;2022-12-24T14:58:20;5.15;;;0.98;;
76138;SDS011;65138;50.946;7.074;2022-12-24T15:00:46;3.20;;;0.75;;
76138;SDS011;65138;50.946;7.074;2022-12-24T15:03:13;3.22;;;0.75;;
76138;SDS011;65138;50.946;7.074;2022-12-24T15:05:40;4.32;;;0.98;;
76138;SDS011;65138;50.946;7.074;2022-12-24T15:08:08;5.47;;;0.88;;
76138;SDS011;65138;50.946;7.074;2022-12-24T15:10:39;5.90;;;2.40;;
76138;SDS011;65138;50.946;7.074;2022-12-24T15:13:22;5.28;;;1.60;;
76138;SDS011;65138;50.946;7.074;2022-12-24T15:15:58;4.85;;;1.38;;
76138;SDS011;65138;50.946;7.074;2022-12-24T15:18:26;3.83;;;1.17;;
76138;SDS011;65138;50.946;7.074;2022-12-24T15:20:56;4.38;;;1.27;;
76138;SDS011;65138;50.946;7.074;2022-12-24T15:24:08;3.30;;;1.08;;
76138;SDS011;65138;50.946;7.074;2022-12-24T15:26:22;4.45;;;1.23;;
76138;SDS011;65138;50.946;7.074;2022-12-24T15:28:51;4.40;;;1.58;;
76138;SDS011;65138;50.946;7.074;2022-12-24T15:31:18;3.45;;;0.77;;
76138;SDS011;65138;50.946;7.074;2022-12-24T15:33:46;4.63;;;0.85;;
76138;SDS011;65138;50.946;7.074;2022-12-24T15:36:13;3.35;;;1.02;;
76138;SDS011;65138;50.946;7.074;2022-12-24T15:38:42;4.25;;;1.20;;
76138;SDS011;65138;50.946;7.074;2022-12-24T15:44:27;3.88;;;0.93;;
76138;SDS011;65138;50.946;7.074;2022-12-24T15:46:58;3.42;;;1.15;;
76138;SDS011;65138;50.946;7.074;2022-12-24T15:49:25;3.83;;;1.10;;
76138;SDS011;65138;50.946;7.074;2022-12-24T15:52:00;4.70;;;0.88;;
76138;SDS011;65138;50.946;7.074;2022-12-24T15:54:30;4.85;;;1.17;;
76138;SDS011;65138;50.946;7.074;2022-12-24T15:56:56;5.72;;;1.42;;
76138;SDS011;65138;50.946;7.074;2022-12-24T15:59:32;4.70;;;1.20;;
76138;SDS011;65138;50.946;7.074;2022-12-24T16:10:47;6.68;;;1.67;;
76138;SDS011;65138;50.946;7.074;2022-12-24T16:13:15;4.45;;;1.25;;
76138;SDS011;65138;50.946;7.074;2022-12-24T16:15:47;3.17;;;0.90;;
76138;SDS011;65138;50.946;7.074;2022-12-24T16:18:20;2.90;;;0.80;;
76138;SDS011;65138;50.946;7.074;2022-12-24T16:20:53;5.25;;;1.52;;
76138;SDS011;65138;50.946;7.074;2022-12-24T16:24:06;4.70;;;1.17;;
76138;SDS011;65138;50.946;7.074;2022-12-24T16:26:10;4.50;;;1.15;;
76138;SDS011;65138;50.946;7.074;2022-12-24T16:28:36;3.65;;;1.02;;
76138;SDS011;65138;50.946;7.074;2022-12-24T16:31:01;4.65;;;1.23;;
76138;SDS011;65138;50.946;7.074;2022-12-24T16:33:27;4.28;;;0.85;;
76138;SDS011;65138;50.946;7.074;2022-12-24T16:35:53;3.97;;;1.15;;
76138;SDS011;65138;50.946;7.074;2022-12-24T16:38:19;5.18;;;1.35;;
76138;SDS011;65138;50.946;7.074;2022-12-24T16:40:45;5.82;;;1.02;;
76138;SDS011;65138;50.946;7.074;2022-12-24T16:43:11;4.88;;;1.13;;
76138;SDS011;65138;50.946;7.074;2022-12-24T16:46:00;6.20;;;1.40;;
76138;SDS011;65138;50.946;7.074;2022-12-24T16:48:29;6.13;;;1.40;;
76138;SDS011;65138;50.946;7.074;2022-12-24T16:50:55;4.82;;;1.55;;
76138;SDS011;65138;50.946;7.074;2022-12-24T16:53:21;3.00;;;1.10;;
76138;SDS011;65138;50.946;7.074;2022-12-24T16:55:48;4.63;;;1.33;;
76138;SDS011;65138;50.946;7.074;2022-12-24T16:58:15;5.03;;;1.30;;
76138;SDS011;65138;50.946;7.074;2022-12-24T17:00:41;5.95;;;1.40;;
76138;SDS011;65138;50.946;7.074;2022-12-24T17:03:08;4.32;;;1.50;;
76138;SDS011;65138;50.946;7.074;2022-12-24T17:05:38;4.35;;;1.30;;
76138;SDS011;65138;50.946;7.074;2022-12-24T17:08:05;4.70;;;1.58;;
76138;SDS011;65138;50.946;7.074;2022-12-24T17:10:31;6.05;;;1.90;;
76138;SDS011;65138;50.946;7.074;2022-12-24T17:12:57;5.65;;;1.50;;
76138;SDS011;65138;50.946;7.074;2022-12-24T17:15:22;4.75;;;1.77;;
76138;SDS011;65138;50.946;7.074;2022-12-24T17:17:48;4.18;;;1.40;;
76138;SDS011;65138;50.946;7.074;2022-12-24T17:20:13;4.38;;;1.73;;
76138;SDS011;65138;50.946;7.074;2022-12-24T17:22:39;3.97;;;1.63;;